createdAt,value
2018-03-27T00:01:55.925Z,69.10
2018-03-27T00:04:22.837Z,69.30
2018-03-27T00:06:49.705Z,68.90
2018-03-27T00:09:16.578Z,69.40
2018-03-27T00:11:43.432Z,69.70
2018-03-27T00:14:10.314Z,68.70
2018-03-27T00:16:37.212Z,68.90
2018-03-27T00:19:04.465Z,68.20
2018-03-27T00:21:31.716Z,67.20
2018-03-27T00:23:59.046Z,67.90
2018-03-27T00:26:25.935Z,67.90
2018-03-27T00:29:04.578Z,67.50
2018-03-27T00:31:43.621Z,68.20
2018-03-27T00:34:22.556Z,68.20
2018-03-27T00:37:01.366Z,68.30
2018-03-27T00:39:40.301Z,68.50
2018-03-27T00:42:13.027Z,68.10
2018-03-27T00:44:39.899Z,67.80
2018-03-27T00:47:07.213Z,66.90
2018-03-27T00:49:34.059Z,66.90
2018-03-27T00:52:01.034Z,66.40
2018-03-27T00:54:27.907Z,67.40
2018-03-27T00:56:55.761Z,67.90
2018-03-27T00:59:22.715Z,67.10
2018-03-27T01:01:49.649Z,66.90
2018-03-27T01:04:16.909Z,66.00
2018-03-27T01:06:44.213Z,65.90
2018-03-27T01:09:11.064Z,65.90
2018-03-27T01:11:37.909Z,65.80
2018-03-27T01:14:04.806Z,66.10
2018-03-27T01:16:31.635Z,66.40
2018-03-27T01:18:58.598Z,66.20
2018-03-27T01:21:26.769Z,66.30
2018-03-27T01:23:53.992Z,67.80
2018-03-27T01:26:20.965Z,67.80
2018-03-27T01:28:48.269Z,67.30
2018-03-27T01:31:15.151Z,67.30
2018-03-27T01:33:42.022Z,67.10
2018-03-27T01:36:08.856Z,67.00
2018-03-27T01:38:35.835Z,67.20
2018-03-27T01:41:02.658Z,67.20
2018-03-27T01:43:30.472Z,67.50
2018-03-27T01:45:57.612Z,67.80
2018-03-27T01:48:24.868Z,68.10
2018-03-27T01:50:51.928Z,67.50
2018-03-27T01:53:18.897Z,67.50
2018-03-27T01:55:45.798Z,68.30
2018-03-27T01:58:13.128Z,68.10
2018-03-27T02:00:39.994Z,68.10
2018-03-27T02:03:06.937Z,68.20
2018-03-27T02:05:33.790Z,68.90
2018-03-27T02:08:00.646Z,69.20
2018-03-27T02:10:27.512Z,69.10
2018-03-27T02:12:54.353Z,69.10
2018-03-27T02:15:21.222Z,69.50
2018-03-27T02:17:48.154Z,69.70
2018-03-27T02:20:15.404Z,69.40
2018-03-27T02:22:42.632Z,70.20
2018-03-27T02:25:09.509Z,70.20
2018-03-27T02:27:36.358Z,70.60
2018-03-27T02:30:08.291Z,70.00
2018-03-27T02:32:35.156Z,70.50
2018-03-27T02:35:02.109Z,71.20
2018-03-27T02:37:29.009Z,70.50
2018-03-27T02:39:55.868Z,70.90
2018-03-27T02:42:22.711Z,71.40
2018-03-27T02:44:49.578Z,71.30
2018-03-27T02:47:16.423Z,71.70
2018-03-27T02:49:43.360Z,71.90
2018-03-27T02:52:10.218Z,71.70
2018-03-27T02:54:37.143Z,72.00
2018-03-27T02:57:04.039Z,72.40
2018-03-27T02:59:30.996Z,72.00
2018-03-27T03:01:57.859Z,72.10
2018-03-27T03:04:24.805Z,72.40
2018-03-27T03:06:51.675Z,72.90
2018-03-27T03:09:18.612Z,73.50
2018-03-27T03:11:45.473Z,73.40
2018-03-27T03:14:12.353Z,73.40
2018-03-27T03:16:39.234Z,73.10
2018-03-27T03:19:06.187Z,72.40
2018-03-27T03:21:33.023Z,72.20
2018-03-27T03:23:59.862Z,72.00
2018-03-27T03:26:26.713Z,72.00
2018-03-27T03:28:53.582Z,72.40
2018-03-27T03:31:20.426Z,72.40
2018-03-27T03:33:47.348Z,72.70
2018-03-27T03:36:14.262Z,73.10
2018-03-27T03:38:41.122Z,73.50
2018-03-27T03:41:08.065Z,72.80
2018-03-27T03:43:34.931Z,73.20
2018-03-27T03:46:02.629Z,73.40
2018-03-27T03:48:29.513Z,73.10
2018-03-27T03:50:56.454Z,72.90
2018-03-27T03:53:23.300Z,73.00
2018-03-27T03:55:50.178Z,73.00
2018-03-27T03:58:17.025Z,72.40
2018-03-27T04:00:43.909Z,72.30
2018-03-27T04:03:10.807Z,72.70
2018-03-27T04:05:37.771Z,73.10
2018-03-27T04:08:04.718Z,72.40
2018-03-27T04:10:31.943Z,72.60
2018-03-27T04:12:58.873Z,72.60
2018-03-27T04:15:25.769Z,72.70
2018-03-27T04:17:52.685Z,72.80
2018-03-27T04:20:19.525Z,73.00
2018-03-27T04:22:46.401Z,72.80
2018-03-27T04:25:13.269Z,72.70
2018-03-27T04:27:40.134Z,72.70
2018-03-27T04:30:07.123Z,72.80
2018-03-27T04:32:34.431Z,72.80
2018-03-27T04:35:01.386Z,72.80
2018-03-27T04:37:28.349Z,73.20
2018-03-27T04:39:55.789Z,73.30
2018-03-27T04:42:22.673Z,72.90
2018-03-27T04:44:49.645Z,73.10
2018-03-27T04:47:16.480Z,73.40
2018-03-27T04:49:43.350Z,73.80
2018-03-27T04:52:10.188Z,74.10
2018-03-27T04:54:37.062Z,74.10
2018-03-27T04:57:03.912Z,74.20
2018-03-27T04:59:30.986Z,73.90
2018-03-27T05:01:57.853Z,73.90
2018-03-27T05:04:24.797Z,73.80
2018-03-27T05:06:51.750Z,73.80
2018-03-27T05:09:18.611Z,74.30
2018-03-27T05:11:45.576Z,74.20
2018-03-27T05:14:12.458Z,74.70
2018-03-27T05:16:39.330Z,74.90
2018-03-27T05:19:06.173Z,75.10
2018-03-27T05:21:33.106Z,75.10
2018-03-27T05:24:00.007Z,75.00
2018-03-27T05:26:26.936Z,74.80
2018-03-27T05:28:54.152Z,74.10
2018-03-27T05:31:21.401Z,74.60
2018-03-27T05:33:48.313Z,74.70
2018-03-27T05:36:15.165Z,74.60
2018-03-27T05:38:42.190Z,74.40
2018-03-27T05:41:09.002Z,74.40
2018-03-27T05:43:35.878Z,74.80
2018-03-27T05:46:02.802Z,74.80
2018-03-27T05:48:29.765Z,74.80
2018-03-27T05:50:56.624Z,74.60
2018-03-27T05:53:23.473Z,74.90
2018-03-27T05:55:50.351Z,75.20
2018-03-27T05:58:17.208Z,75.30
2018-03-27T06:00:44.194Z,74.60
2018-03-27T06:03:11.119Z,74.80
2018-03-27T06:05:37.969Z,74.90
2018-03-27T06:08:04.909Z,74.30
2018-03-27T06:10:32.143Z,74.20
2018-03-27T06:12:59.449Z,74.80
2018-03-27T06:15:26.306Z,74.80
2018-03-27T06:17:53.267Z,74.80
2018-03-27T06:20:20.141Z,74.70
2018-03-27T06:22:46.989Z,74.40
2018-03-27T06:25:13.867Z,74.00
2018-03-27T06:27:40.817Z,73.50
2018-03-27T06:30:07.647Z,73.20
2018-03-27T06:32:34.554Z,73.00
2018-03-27T06:35:01.392Z,72.60
2018-03-27T06:37:28.347Z,72.60
2018-03-27T06:39:55.207Z,72.10
2018-03-27T06:42:22.153Z,71.70
2018-03-27T06:44:49.010Z,71.70
2018-03-27T06:47:15.961Z,71.70
2018-03-27T06:49:42.919Z,71.40
2018-03-27T06:52:09.774Z,70.80
2018-03-27T06:54:36.643Z,70.80
2018-03-27T06:57:03.532Z,70.90
2018-03-27T06:59:30.452Z,70.50
2018-03-27T07:01:57.347Z,70.60
2018-03-27T07:04:24.183Z,70.60
2018-03-27T07:06:51.136Z,70.50
2018-03-27T07:09:18.114Z,70.10
2018-03-27T07:11:45.063Z,69.60
2018-03-27T07:14:11.924Z,68.90
2018-03-27T07:16:38.901Z,68.90
2018-03-27T07:19:05.733Z,69.00
2018-03-27T07:21:32.676Z,69.00
2018-03-27T07:23:59.613Z,68.50
2018-03-27T07:26:26.980Z,67.40
2018-03-27T07:28:53.939Z,67.40
2018-03-27T07:31:21.230Z,66.30
2018-03-27T07:33:48.094Z,66.30
2018-03-27T07:36:14.937Z,65.60
2018-03-27T07:38:41.880Z,65.80
2018-03-27T07:41:08.768Z,66.20
2018-03-27T07:43:35.713Z,65.90
2018-03-27T07:46:02.574Z,65.80
2018-03-27T07:48:29.467Z,66.20
2018-03-27T07:50:56.318Z,66.20
2018-03-27T07:53:23.176Z,66.00
2018-03-27T07:55:50.105Z,65.10
2018-03-27T07:58:16.943Z,65.10
2018-03-27T08:00:43.777Z,65.10
2018-03-27T08:03:11.089Z,64.60
2018-03-27T08:05:38.037Z,64.60
2018-03-27T08:08:04.920Z,64.90
2018-03-27T08:10:31.806Z,64.40
2018-03-27T08:12:58.716Z,64.30
2018-03-27T08:15:25.761Z,64.40
2018-03-27T08:17:52.642Z,64.50
2018-03-27T08:20:19.614Z,64.50
2018-03-27T08:22:46.550Z,64.70
2018-03-27T08:25:13.500Z,64.30
2018-03-27T08:27:40.365Z,64.60
2018-03-27T08:30:07.249Z,64.30
2018-03-27T08:32:34.163Z,64.30
2018-03-27T08:35:01.429Z,64.20
2018-03-27T08:37:28.283Z,64.20
2018-03-27T08:39:58.112Z,64.30
2018-03-27T08:42:24.949Z,65.00
2018-03-27T08:44:52.206Z,64.20
2018-03-27T08:47:19.453Z,64.50
2018-03-27T08:49:46.390Z,64.50
2018-03-27T08:52:13.252Z,64.50
2018-03-27T08:54:40.190Z,64.60
2018-03-27T08:57:07.142Z,64.30
2018-03-27T08:59:34.014Z,64.40
2018-03-27T09:02:00.908Z,64.40
2018-03-27T09:04:27.777Z,64.40
2018-03-27T09:06:55.097Z,64.70
2018-03-27T09:09:21.958Z,64.70
2018-03-27T09:11:48.987Z,64.70
2018-03-27T09:14:15.931Z,64.90
2018-03-27T09:16:43.216Z,64.00
2018-03-27T09:19:10.069Z,64.00
2018-03-27T09:21:36.952Z,63.70
2018-03-27T09:24:03.915Z,62.50
2018-03-27T09:26:30.769Z,62.00
2018-03-27T09:28:57.729Z,61.20
2018-03-27T09:31:24.673Z,61.10
2018-03-27T09:33:51.616Z,60.70
2018-03-27T09:36:18.474Z,60.80
2018-03-27T09:38:45.451Z,61.20
2018-03-27T09:41:12.405Z,61.20
2018-03-27T09:43:39.260Z,60.60
2018-03-27T09:46:06.143Z,60.30
2018-03-27T09:48:32.986Z,60.40
2018-03-27T09:50:59.941Z,59.80
2018-03-27T09:53:26.786Z,59.60
2018-03-27T09:55:53.745Z,59.70
2018-03-27T09:58:20.624Z,59.10
2018-03-27T10:00:47.590Z,58.30
2018-03-27T10:03:14.474Z,58.40
2018-03-27T10:05:41.321Z,58.60
2018-03-27T10:08:08.243Z,58.70
2018-03-27T10:10:35.149Z,59.20
2018-03-27T10:13:02.015Z,59.20
2018-03-27T10:15:29.265Z,58.70
2018-03-27T10:17:56.200Z,58.70
2018-03-27T10:20:23.067Z,59.20
2018-03-27T10:22:49.926Z,58.90
2018-03-27T10:25:17.234Z,59.00
2018-03-27T10:27:44.516Z,58.70
2018-03-27T10:30:11.432Z,58.70
2018-03-27T10:32:38.353Z,58.90
2018-03-27T10:35:05.322Z,58.40
2018-03-27T10:37:32.191Z,57.20
2018-03-27T10:39:59.137Z,57.50
2018-03-27T10:42:25.977Z,57.40
2018-03-27T10:44:52.855Z,57.40
2018-03-27T10:47:19.742Z,58.20
2018-03-27T10:49:46.660Z,58.30
2018-03-27T10:52:13.531Z,58.60
2018-03-27T10:54:40.404Z,58.50
2018-03-27T10:57:07.251Z,58.30
2018-03-27T10:59:34.206Z,58.60
2018-03-27T11:02:01.147Z,57.70
2018-03-27T11:04:28.008Z,58.60
2018-03-27T11:06:54.860Z,58.90
2018-03-27T11:09:21.722Z,58.80
2018-03-27T11:11:48.695Z,59.50
2018-03-27T11:14:15.674Z,59.90
2018-03-27T11:16:42.522Z,60.60
2018-03-27T11:19:09.375Z,59.80
2018-03-27T11:21:36.309Z,60.20
2018-03-27T11:24:07.428Z,60.10
2018-03-27T11:26:34.698Z,60.70
2018-03-27T11:29:02.016Z,61.30
2018-03-27T11:31:28.914Z,61.30
2018-03-27T11:33:55.779Z,61.50
2018-03-27T11:36:23.065Z,61.00
2018-03-27T11:38:49.949Z,61.00
2018-03-27T11:41:16.847Z,60.50
2018-03-27T11:43:43.823Z,61.00
2018-03-27T11:46:10.757Z,61.10
2018-03-27T11:48:37.641Z,61.60
2018-03-27T11:51:04.890Z,61.40
2018-03-27T11:53:31.796Z,61.40
2018-03-27T11:55:58.666Z,61.50
2018-03-27T11:58:25.580Z,61.30
2018-03-27T12:00:52.848Z,61.10
2018-03-27T12:03:20.113Z,61.60
2018-03-27T12:05:47.496Z,61.20
2018-03-27T12:08:14.507Z,61.20
2018-03-27T12:10:41.361Z,61.10
2018-03-27T12:13:08.206Z,61.00
2018-03-27T12:15:35.153Z,60.70
2018-03-27T12:18:02.019Z,60.30
2018-03-27T12:20:28.909Z,60.20
2018-03-27T12:22:55.770Z,59.70
2018-03-27T12:25:22.692Z,59.60
2018-03-27T12:27:49.565Z,59.40
2018-03-27T12:30:16.438Z,59.30
2018-03-27T12:32:43.288Z,58.40
2018-03-27T12:35:10.216Z,58.70
2018-03-27T12:37:37.093Z,59.00
2018-03-27T12:40:04.039Z,58.80
2018-03-27T12:42:30.987Z,59.10
2018-03-27T12:44:57.845Z,59.20
2018-03-27T12:47:24.804Z,59.40
2018-03-27T12:49:51.658Z,59.30
2018-03-27T12:52:18.639Z,59.30
2018-03-27T12:54:45.623Z,59.00
2018-03-27T12:57:12.557Z,58.70
2018-03-27T12:59:39.413Z,58.80
2018-03-27T13:02:06.459Z,59.20
2018-03-27T13:04:33.507Z,59.60
2018-03-27T13:07:00.767Z,60.00
2018-03-27T13:09:27.617Z,60.00
2018-03-27T13:11:54.495Z,59.90
2018-03-27T13:14:21.480Z,59.90
2018-03-27T13:16:48.434Z,60.10
2018-03-27T13:19:15.318Z,60.40
2018-03-27T13:21:42.169Z,60.60
2018-03-27T13:24:09.080Z,60.20
2018-03-27T13:26:35.933Z,60.30
2018-03-27T13:29:02.925Z,61.50
2018-03-27T13:31:29.790Z,62.50
2018-03-27T13:33:56.656Z,62.80
2018-03-27T13:36:23.494Z,63.00
2018-03-27T13:38:50.472Z,63.10
2018-03-27T13:41:17.408Z,63.40
2018-03-27T13:43:44.354Z,62.90
2018-03-27T13:46:11.314Z,63.00
2018-03-27T13:48:38.176Z,63.30
2018-03-27T13:51:05.050Z,63.70
2018-03-27T13:53:31.945Z,63.60
2018-03-27T13:55:58.864Z,64.00
2018-03-27T13:58:25.792Z,65.00
2018-03-27T14:00:52.664Z,65.50
2018-03-27T14:03:19.550Z,66.20
2018-03-27T14:05:46.436Z,66.70
2018-03-27T14:08:13.766Z,67.50
2018-03-27T14:10:40.626Z,67.50
2018-03-27T14:13:07.501Z,68.90
2018-03-27T14:15:34.348Z,70.50
2018-03-27T14:18:01.275Z,72.40
2018-03-27T14:20:28.212Z,73.20
2018-03-27T14:22:55.498Z,73.80
2018-03-27T14:25:22.364Z,73.80
2018-03-27T14:27:49.340Z,73.90
2018-03-27T14:30:16.280Z,73.50
2018-03-27T14:32:43.162Z,73.10
2018-03-27T14:35:10.056Z,72.00
2018-03-27T14:37:37.362Z,71.80
2018-03-27T14:40:05.049Z,71.80
2018-03-27T14:42:31.911Z,71.70
2018-03-27T14:44:58.762Z,72.00
2018-03-27T14:47:25.633Z,71.90
2018-03-27T14:49:52.517Z,71.70
2018-03-27T14:52:19.407Z,71.80
2018-03-27T14:54:46.258Z,71.00
2018-03-27T14:57:13.149Z,70.80
2018-03-27T14:59:40.174Z,70.60
2018-03-27T15:02:07.541Z,70.40
2018-03-27T15:04:34.522Z,70.40
2018-03-27T15:07:01.565Z,69.70
2018-03-27T15:09:28.848Z,70.90
2018-03-27T15:11:55.718Z,70.90
2018-03-27T15:14:22.564Z,68.20
2018-03-27T15:16:49.503Z,67.90
2018-03-27T15:19:16.772Z,67.60
2018-03-27T15:21:43.769Z,67.60
2018-03-27T15:24:10.692Z,67.90
2018-03-27T15:26:37.548Z,68.90
2018-03-27T15:29:04.537Z,68.70
2018-03-27T15:31:31.417Z,68.30
2018-03-27T15:33:58.302Z,68.10
2018-03-27T15:36:25.617Z,68.80
2018-03-27T15:38:52.618Z,68.70
2018-03-27T15:41:19.509Z,68.70
2018-03-27T15:43:46.798Z,69.30
2018-03-27T15:46:13.664Z,69.30
2018-03-27T15:48:40.536Z,69.10
2018-03-27T15:51:07.465Z,69.30
2018-03-27T15:53:34.325Z,68.60
2018-03-27T15:56:01.252Z,68.40
2018-03-27T15:58:28.534Z,70.40
2018-03-27T16:00:55.827Z,71.00
2018-03-27T16:03:22.719Z,71.00
2018-03-27T16:05:49.768Z,71.90
2018-03-27T16:08:16.665Z,72.80
2018-03-27T16:10:43.533Z,72.60
2018-03-27T16:13:10.381Z,72.30
2018-03-27T16:15:37.287Z,72.30
2018-03-27T16:18:04.169Z,71.40
2018-03-27T16:20:31.043Z,72.00
2018-03-27T16:22:58.380Z,72.70
2018-03-27T16:25:25.350Z,72.70
2018-03-27T16:27:52.200Z,71.70
2018-03-27T16:30:19.067Z,71.70
2018-03-27T16:32:45.917Z,72.00
2018-03-27T16:35:12.790Z,72.20
2018-03-27T16:37:40.053Z,73.00
2018-03-27T16:40:06.900Z,73.00
2018-03-27T16:42:33.810Z,72.40
2018-03-27T16:45:00.676Z,72.10
2018-03-27T16:47:27.542Z,72.00
2018-03-27T16:49:54.503Z,71.70
2018-03-27T16:52:21.371Z,72.20
2018-03-27T16:54:48.304Z,71.30
2018-03-27T16:57:15.216Z,71.90
2018-03-27T16:59:42.121Z,72.90
2018-03-27T17:02:09.004Z,72.70
2018-03-27T17:04:35.928Z,72.60
2018-03-27T17:07:02.821Z,72.10
2018-03-27T17:09:41.712Z,72.60
2018-03-27T17:12:08.588Z,72.80
2018-03-27T17:14:35.457Z,73.30
2018-03-27T17:17:02.339Z,74.10
2018-03-27T17:19:29.255Z,74.50
2018-03-27T17:21:56.533Z,73.80
2018-03-27T17:24:23.386Z,73.80
2018-03-27T17:26:50.249Z,75.20
2018-03-27T17:29:17.118Z,75.00
2018-03-27T17:31:43.996Z,75.50
2018-03-27T17:34:10.926Z,75.90
2018-03-27T17:36:37.793Z,76.00
2018-03-27T17:39:04.677Z,76.40
2018-03-27T17:41:31.606Z,76.60
2018-03-27T17:43:59.133Z,76.80
2018-03-27T17:46:26.393Z,76.60
2018-03-27T17:48:53.666Z,77.10
2018-03-27T17:51:20.925Z,77.20
2018-03-27T17:53:48.238Z,77.80
2018-03-27T17:56:15.165Z,77.80
2018-03-27T17:58:42.047Z,78.30
2018-03-27T18:01:09.002Z,78.50
2018-03-27T18:03:35.965Z,78.80
2018-03-27T18:06:02.822Z,79.00
2018-03-27T18:08:29.698Z,78.70
2018-03-27T18:10:56.633Z,78.30
2018-03-27T18:13:23.506Z,78.40
2018-03-27T18:15:50.446Z,78.50
2018-03-27T18:18:17.327Z,78.50
2018-03-27T18:20:44.179Z,78.50
2018-03-27T18:23:11.031Z,78.50
2018-03-27T18:25:37.914Z,79.00
2018-03-27T18:28:05.253Z,79.80
2018-03-27T18:30:32.171Z,79.80
2018-03-27T18:32:59.496Z,80.30
2018-03-27T18:35:26.355Z,80.30
2018-03-27T18:37:53.229Z,80.30
2018-03-27T18:40:20.091Z,80.40
2018-03-27T18:42:46.962Z,80.60
2018-03-27T18:45:13.862Z,80.50
2018-03-27T18:47:40.747Z,80.70
2018-03-27T18:50:07.603Z,80.70
2018-03-27T18:52:34.506Z,81.20
2018-03-27T18:55:01.443Z,81.40
2018-03-27T18:57:28.843Z,81.40
2018-03-27T18:59:55.710Z,81.40
2018-03-27T19:02:22.549Z,81.40
2018-03-27T19:04:49.433Z,81.50
2018-03-27T19:07:16.278Z,81.60
2018-03-27T19:09:43.145Z,81.40
2018-03-27T19:12:09.985Z,81.30
2018-03-27T19:14:36.954Z,82.20
2018-03-27T19:17:03.823Z,82.50
2018-03-27T19:19:30.708Z,82.50
2018-03-27T19:21:57.562Z,82.60
2018-03-27T19:24:24.488Z,82.20
2018-03-27T19:26:51.351Z,82.20
2018-03-27T19:29:18.241Z,82.20
2018-03-27T19:31:45.090Z,81.80
2018-03-27T19:34:11.958Z,81.70
2018-03-27T19:36:38.871Z,81.80
2018-03-27T19:39:05.741Z,82.10
2018-03-27T19:41:33.068Z,82.40
2018-03-27T19:44:00.376Z,82.30
2018-03-27T19:46:27.407Z,82.30
2018-03-27T19:48:54.677Z,82.30
2018-03-27T19:51:21.555Z,82.30
2018-03-27T19:53:48.498Z,82.10
2018-03-27T19:56:15.452Z,82.50
2018-03-27T19:58:42.409Z,82.70
2018-03-27T20:01:09.253Z,82.80
2018-03-27T20:03:36.129Z,82.70
2018-03-27T20:06:02.977Z,82.60
2018-03-27T20:08:29.860Z,82.70
2018-03-27T20:10:56.892Z,83.00
2018-03-27T20:13:24.173Z,83.00
2018-03-27T20:15:51.039Z,83.10
2018-03-27T20:18:17.987Z,83.00
2018-03-27T20:20:44.836Z,83.50
2018-03-27T20:23:11.819Z,83.80
2018-03-27T20:25:38.766Z,83.80
2018-03-27T20:28:05.718Z,84.00
2018-03-27T20:30:32.558Z,83.80
2018-03-27T20:32:59.406Z,83.50
2018-03-27T20:35:26.729Z,84.20
2018-03-27T20:37:53.592Z,84.20
2018-03-27T20:40:20.518Z,84.30
2018-03-27T20:42:47.481Z,84.10
2018-03-27T20:45:14.352Z,84.30
2018-03-27T20:47:41.211Z,84.40
2018-03-27T20:50:08.156Z,84.30
2018-03-27T20:52:35.199Z,84.40
2018-03-27T20:55:02.434Z,84.40
2018-03-27T20:57:29.311Z,84.40
2018-03-27T20:59:56.166Z,84.70
2018-03-27T21:02:23.449Z,84.90
2018-03-27T21:04:50.316Z,84.90
2018-03-27T21:07:17.157Z,84.80
2018-03-27T21:09:44.034Z,84.60
2018-03-27T21:12:10.890Z,84.70
2018-03-27T21:14:37.862Z,84.60
2018-03-27T21:17:04.701Z,84.80
2018-03-27T21:19:31.669Z,84.70
2018-03-27T21:21:58.637Z,84.60
2018-03-27T21:24:25.482Z,84.50
2018-03-27T21:26:52.429Z,84.10
2018-03-27T21:29:19.394Z,84.00
2018-03-27T21:31:46.244Z,84.40
2018-03-27T21:34:13.113Z,84.80
2018-03-27T21:36:40.074Z,85.00
2018-03-27T21:39:07.033Z,85.10
2018-03-27T21:41:33.890Z,84.70
2018-03-27T21:44:00.746Z,84.80
2018-03-27T21:46:27.638Z,84.60
2018-03-27T21:48:54.586Z,84.50
2018-03-27T21:51:21.439Z,84.50
2018-03-27T21:53:48.373Z,84.60
2018-03-27T21:56:15.325Z,84.70
2018-03-27T21:58:42.196Z,84.60
2018-03-27T22:01:09.153Z,84.50
2018-03-27T22:03:39.785Z,84.40
2018-03-27T22:06:06.639Z,84.50
2018-03-27T22:08:33.522Z,84.40
2018-03-27T22:11:00.441Z,84.60
2018-03-27T22:13:27.709Z,85.00
2018-03-27T22:15:54.953Z,85.20
2018-03-27T22:18:21.869Z,85.20
2018-03-27T22:20:48.867Z,85.30
2018-03-27T22:23:15.782Z,85.30
2018-03-27T22:25:42.651Z,85.40
2018-03-27T22:28:09.611Z,85.90
2018-03-27T22:30:36.474Z,85.50
2018-03-27T22:33:03.449Z,85.40
2018-03-27T22:35:30.323Z,85.60
2018-03-27T22:37:57.233Z,85.50
2018-03-27T22:40:24.293Z,85.90
2018-03-27T22:42:51.144Z,85.90
2018-03-27T22:45:18.117Z,85.60
2018-03-27T22:47:44.960Z,85.50
2018-03-27T22:50:11.929Z,85.30
2018-03-27T22:52:38.781Z,85.00
2018-03-27T22:55:05.645Z,85.10
2018-03-27T22:57:32.617Z,85.20
2018-03-27T22:59:59.501Z,85.30
2018-03-27T23:02:26.510Z,85.30
2018-03-27T23:04:53.745Z,85.20
2018-03-27T23:07:20.613Z,85.20
2018-03-27T23:09:47.893Z,85.30
2018-03-27T23:12:14.747Z,85.30
2018-03-27T23:14:42.005Z,85.20
2018-03-27T23:17:09.279Z,85.10
2018-03-27T23:19:36.588Z,85.10
2018-03-27T23:22:03.464Z,85.10
2018-03-27T23:24:30.434Z,85.30
2018-03-27T23:26:57.305Z,85.20
2018-03-27T23:29:24.621Z,84.80
2018-03-27T23:31:51.485Z,84.80
2018-03-27T23:34:18.447Z,84.80
2018-03-27T23:36:45.393Z,85.00
2018-03-27T23:39:12.241Z,85.20
2018-03-27T23:41:39.094Z,85.40
2018-03-27T23:44:05.952Z,85.50
2018-03-27T23:46:32.936Z,85.60
2018-03-27T23:48:59.811Z,85.40
2018-03-27T23:51:26.662Z,85.20
2018-03-27T23:53:53.607Z,85.20
2018-03-27T23:56:20.466Z,85.20
2018-03-27T23:58:47.310Z,85.30
